Airfield :
LOGIN :

Register | Disclaimer

   EN    FR    IT 

 










Legend :    VFR   Marginal VFR   IFR   Intensive IFR   Very Intensive IFR
Visi :
Ceiling :
>= 8 km
>= 3000ft
5 to 8 km
1000 to 3000 ft
1500m to 5 km
500 to 1000 ft
800 to 1500m
200 to 500 ft
< 800m
< 200 ft
Symbols :   Thunderstorms  Fog  Heavy snow  Heavy precipitations  Wind > 20 kt
SIGMETs :     Misc.  Thunderstorms  Icing  Turbulence  Mountain Waves  Volcanic Ashes






- Airport Elevation : 2096 ft
- IATA code : AUR


LFLW - Aurillac

CURRENT METAR :
  • 231500Z AUTO 32006KT 260V010 9999 ////// 16/02 Q1031

EXPIRED METARs :
  • 231430Z AUTO 31005KT 260V330 9999 ////// 16/03 Q1031
  • 231400Z AUTO 32006KT 280V350 9999 ////// 16/04 Q1031
  • 231330Z AUTO 31006KT 260V350 9999 ////// 16/04 Q1031
  • 231300Z AUTO 33004KT 280V020 9999 ////// 15/06 Q1032
  • 231230Z AUTO 31003KT 220V030 9999 ////// 15/07 Q1032
  • 231200Z AUTO VRB02KT 9999 ////// 14/06 Q1032

TAF TAF LFLW
Valid from the 23 at 15:00 until the 24 at 00:00 UTC


231400Z 2315/2324 VRB03KT CAVOK
BECMG 2320/2322 3000 BR
PROB30
TEMPO 2322/2324 0600 FG VV///



MET'MAP, your aeronautical weather chart ! - Copyright ORBIFLY December 2007 - Disclaimer

ORBIFLY MET'MAP TEAM :

Programming & Development : Alexandra Zaïnal
Concept & original design : Baudouin d'Aumeries
Assistance for programming : Marc-Olivier Méhu
Technical & hardware support : Manuel Goepfert

Contact : metmap@orbifly.com




SOURCES & CREDITS :

   NOAA